Tiempo atmosférico en la estación meteorológica de Cazalla De La Sierra, Sevilla (550 m.)



Fecha
DESCASC
Temp. máxima en grados centígrados (hora)
DESCASC
Temp. mínima en grados centígrados (hora)
DESCASC
Temp. media en grados centígrados
DESCASC
Racha de viento máxima en m/sg (hora)
DESCASC
Velocidad máxima media en intervalos de 10 minutos(hora)
DESCASC
Precipitaciones diarias en mm
DESCASC
Precipitaciones de 00:00 a 06:00 en mm
DESCASC
Precipitaciones de 06:00 a 12:00 en mm
DESCASC
Precipitaciones de 12:00 a 18:00 en mm
DESCASC
Precipitaciones de 18:00 a 24:00 en mm
DESCASC
14-07-2019 34.3 (18:10) 14.5 (00:00) 24.4 9.72 (16:50) 3.61 (14:50) 0 0 0 0 0
13-07-2019 29.4 (18:20) 16 (00:00) 22.7 10 (16:20) 4.72 (14:20) 0 0 0 0 0
12-07-2019 34 (15:40) 18.7 (00:00) 26.4 6.67 (21:40) 3.33 (02:10) 0 0 0 0 0
11-07-2019 37.1 (16:40) 15.8 (00:00) 26.4 8.33 (18:00) 3.06 (15:20) 0 0 0 0 0
10-07-2019 34.5 (18:20) 14.6 (00:00) 24.6 6.11 (13:10) 2.78 (12:40) 0 0 0 0 0
09-07-2019 29.4 (18:50) 13.2 (00:00) 21.3 7.5 (19:10) 3.33 (11:20) 0 0 0 0 0
08-07-2019 26.3 (15:40) 12.9 (00:00) 19.6 8.33 (14:00) 3.89 (14:10) 0 0 0 0 0
07-07-2019 30.8 (17:00) 14.3 (00:00) 22.5 8.33 (14:50) 3.61 (18:10) 0 0 0 0 0
06-07-2019 31.3 (16:50) 12.5 (00:00) 21.9 7.5 (17:20) 3.89 (14:50) 0 0 0 0 0
05-07-2019 30.3 (16:10) 12 (00:00) 21.1 7.22 (14:50) 3.33 (18:00) 0 0 0 0 0
04-07-2019 26.6 (17:20) 15.2 (00:00) 20.9 8.89 (15:40) 3.89 (15:40) 0 0 0 0 0
03-07-2019 28.3 (16:40) 11.6 (00:00) 19.9 7.5 (18:30) 3.06 (16:10) 0 0 0 0 0
02-07-2019 31.5 (17:50) 13.7 (07:10) 22.6 8.61 (17:50) 3.06 (19:20) 0 0 0 0 0
01-07-2019 33.5 (18:10) 14.8 (07:10) 24.2 7.22 (15:20) 3.33 (16:30) 0 0 0 0 0
30-06-2019 31.8 (18:10) 16.5 (00:00) 24.1 7.22 (13:10) 3.33 (15:20) 0 0 0 0 0
29-06-2019 36 (16:40) 16.4 (00:00) 26.2 6.67 (19:20) 3.33 (17:30) 0 0 0 0 0
28-06-2019 34.8 (18:00) 15.3 (00:00) 25 6.11 (15:40) 2.78 (14:00) 0 0 0 0 0
27-06-2019 30.3 (18:00) 15 (00:00) 22.6 7.78 (17:10) 3.89 (17:10) 0 0 0 0 0
26-06-2019 29.6 (18:40) 14.7 (00:00) 22.2 8.89 (14:00) 4.17 (14:00) 0 0 0 0 0
25-06-2019 30.4 (17:00) 14.3 (00:00) 22.3 8.06 (16:40) 3.61 (20:20) 0 0 0 0 0
24-06-2019 30.4 (17:20) 14.8 (00:00) 22.6 8.61 (15:30) 3.06 (17:50) 0 0 0 0 0
23-06-2019 30.9 (16:10) 13.1 (00:00) 22 9.17 (15:40) 3.06 (21:40) 0 0 0 0 0
22-06-2019 31.8 (18:00) 12.5 (00:00) 22.1 8.33 (13:10) 2.78 (18:30) 0 0 0 0 0
21-06-2019 29.6 (17:10) 11.1 (00:00) 20.4 6.67 (17:20) 3.61 (16:50) 0 0 0 0 0
20-06-2019 28.1 (18:30) 13.5 (00:00) 20.8 8.33 (18:10) 3.33 (18:20) 0 0 0 0 0
19-06-2019 28.9 (18:10) 12.9 (00:00) 20.9 7.22 (15:50) 3.89 (17:30) 0 0 0 0 0
18-06-2019 25.8 (16:20) 10.6 (00:00) 18.2 8.89 (18:40) 4.17 (19:30) 0 0 0 0 0
17-06-2019 28.4 (17:40) 9 (00:00) 18.7 8.33 (17:40) 3.61 (16:20) 0 0 0 0 0
16-06-2019 27.6 (15:40) 9.9 (00:00) 18.8 7.78 (17:20) 3.33 (17:20) 0 0 0 0 0

Gráficas

Temp. máximas Temp. mínimas Temp. medias Precipitaciones Rachas de viento máximas Velocidades máximas media en intervalos de 10 minutos

Datos horarios

Fecha y hora oficial Temperatura (ºC) Velocidad del viento (km/h) Dirección del viento Racha (km/h) Dirección de racha Precipitación (mm) Presión (hPa) Tendencia (hPa) Humedad (%)
2019-07-15 23:00:00 24.3 2 Noroeste 15 Sudoeste 0 950.7 1.2 42
2019-07-15 22:00:00 27.1 5 Sudoeste 18 Sudoeste 0 950.1 0.5 37
2019-07-15 21:00:00 29.1 8 Sudoeste 24 Oeste 0 949.8 -0.1 33
2019-07-15 20:00:00 30.8 10 Sudoeste 22 Sudoeste 0 949.5 -0.7 30
2019-07-15 19:00:00 32 10 Sudoeste 25 Oeste 0 949.6 -1.1 28
2019-07-15 18:00:00 32.2 9 Sudoeste 24 Oeste 0 949.9 -1.1 27
2019-07-15 17:00:00 32.7 8 Sudoeste 23 Sudeste 0 950.2 -1.1 25
2019-07-15 16:00:00 32.5 6 Sudoeste 22 Sudoeste 0 950.7 -0.9 28
2019-07-15 15:00:00 31 10 Sudoeste 25 Sudoeste 0 951 -0.5 31
2019-07-15 14:00:00 30.6 6 Sudoeste 19 Sudoeste 0 951.3 -0.3 32
2019-07-15 13:00:00 28.9 6 Sudoeste 18 Sudoeste 0 951.6 0.1 36
2019-07-15 12:00:00 27.3 6 Sudoeste 15 Sur 0 951.5 0.1 41
2019-07-15 11:00:00 25.8 8 Sudoeste 16 Sudoeste 0 951.6 0.7 43
2019-07-15 10:00:00 24.8 3 Noroeste 6 Noroeste 0 951.5 1 47
2019-07-15 09:00:00 20.6 0 Calma -- -- 0 951.4 0.9 63
2019-07-15 08:00:00 17.4 0 Calma 5 Este 0 950.9 0.6 74
2019-07-15 07:00:00 16.6 3 Este 7 Este 0 950.5 -0.2 74
2019-07-15 06:00:00 17.3 2 Este 6 Este 0 950.5 -0.4 73
2019-07-15 05:00:00 18.9 4 Este 6 Este 0 950.3 -1 67
2019-07-15 04:00:00 21 0 Calma 12 Noroeste 0 950.7 -0.7 58
2019-07-15 03:00:00 21.4 6 Oeste 14 Noroeste 0 950.9 -0.6 59
2019-07-15 02:00:00 18.7 0 Calma 4 Este 0 951.3 0.2 69
2019-07-15 01:00:00 19.8 2 Sudeste 7 Oeste 0 951.4 0.7 63
2019-07-15 00:00:00 21.4 7 Oeste 14 Oeste 0 951.5 1.2 58
2019-07-14 23:00:00 23.6 4 Oeste 13 Sudoeste 0 951.1 0.9 46
2019-07-14 22:00:00 26.3 5 Sur 15 Sudoeste 0 950.7 0.8 38
2019-07-14 21:00:00 28.2 5 Sur 20 Sudoeste 0 950.3 0.4 36
2019-07-14 20:00:00 29.3 11 Sudoeste 29 Sudoeste 0 950.2 -0.1 33
2019-07-14 19:00:00 31.1 7 Sudoeste 24 Noroeste 0 949.9 -0.8 23
2019-07-14 18:00:00 33.4 4 Noroeste 25 Oeste 0 949.9 -1.7 18
2019-07-14 17:00:00 32.1 10 Oeste 35 Noroeste 0 950.3 -1.5 21
2019-07-14 16:00:00 31.4 6 Oeste 24 Oeste 0 950.7 -1.4 23
2019-07-14 15:00:00 30.3 4 Oeste 22 Oeste 0 951.6 -0.7 26
2019-07-14 14:00:00 28.9 2 Sur 19 Oeste 0 951.8 -0.6 29
2019-07-14 13:00:00 26.7 7 Sudoeste 19 Oeste 0 952.1 0.1 34
2019-07-14 12:00:00 25.3 0 Calma 17 Sur 0 952.3 0.5 37
2019-07-14 11:00:00 23.2 6 Sudoeste 13 Sudoeste 0 952.4 0.9 42
2019-07-14 10:00:00 22.3 2 Sudoeste 9 Sudoeste 0 952 0.6 44
2019-07-14 09:00:00 19.9 2 Noroeste 10 Norte 0 951.8 0.3 56
2019-07-14 08:00:00 17.7 3 Norte 10 Noroeste 0 951.5 0 65
2019-07-14 07:00:00 15.6 3 Noroeste 9 Noroeste 0 951.4 -0.2 74
2019-07-14 06:00:00 14.8 3 Sudeste 6 Este 0 951.5 -0.6 79
2019-07-14 05:00:00 14.6 0 Calma 4 Este 0 951.5 -1 79
2019-07-14 04:00:00 15.1 0 Calma 2 Este 0 951.6 -1 78
2019-07-14 03:00:00 15.7 0 Calma 2 Este 0 952.1 -0.4 75
2019-07-14 02:00:00 16.7 0 Calma 4 Noroeste 0 952.5 0.3 70
2019-07-14 01:00:00 18 0 Calma 7 Sur 0 952.6 0.9 67
2019-07-14 00:00:00 20.3 3 Sudeste 14 Sur 0 952.5 1.7 58
2019-07-13 23:00:00 21.7 0 Calma 8 Sudoeste 0 952.2 1.8 52
2019-07-13 22:00:00 23.7 0 Calma 18 Sudoeste 0 951.7 1.2 46
2019-07-13 21:00:00 26.2 8 Sudoeste 22 Sur 0 950.8 -0.2 34
2019-07-13 20:00:00 27.8 9 Sudoeste 23 Oeste 0 950.4 -0.7 29
2019-07-13 19:00:00 28.5 6 Sudoeste 24 Sudoeste 0 950.5 -1.4 28
2019-07-13 18:00:00 28.1 7 Sudoeste 28 Sudoeste 0 951 -1.5 28
2019-07-13 17:00:00 28 10 Oeste 36 Oeste 0 951.1 -1.8 28
2019-07-13 16:00:00 28.3 10 Oeste 31 Oeste 0 951.9 -1.4 28
2019-07-13 15:00:00 26.8 10 Sudoeste 28 Oeste 0 952.5 -1.1 31
2019-07-13 14:00:00 26.8 9 Oeste 26 Oeste 0 952.9 -0.8 32
2019-07-13 13:00:00 23.6 14 Oeste 24 Oeste 0 953.3 -0.3 39
2019-07-13 12:00:00 22.3 8 Sudoeste 23 Sudoeste 0 953.6 0.3 47
2019-07-13 11:00:00 20.6 6 Sudoeste 19 Oeste 0 953.7 0.8 53
2019-07-13 10:00:00 18.2 5 Oeste 21 Noroeste 0 953.6 1.4 68
2019-07-13 09:00:00 17.1 6 Sudoeste 14 Sudoeste 0 953.3 1 80
2019-07-13 08:00:00 16.2 0 Calma 5 Oeste 0 952.9 0.1 78
2019-07-13 07:00:00 16.7 0 Calma 3 Este 0 952.2 -0.8 78
2019-07-13 06:00:00 17.3 0 Calma 5 Oeste 0 952.3 -1.1 78
2019-07-13 05:00:00 17.7 0 Calma 12 Sudoeste 0 952.8 -0.5 76
2019-07-13 04:00:00 18.9 3 Sur 10 Sur 0 953 -0.9 70
2019-07-13 03:00:00 19.8 2 Sudoeste 12 Sudoeste 0 953.4 -0.2 70
2019-07-13 02:00:00 21.4 2 Sur 9 Oeste 0 953.3 0.9 59
2019-07-13 01:00:00 21.6 4 Oeste 17 Sudoeste 0 953.9 1.6 57
2019-07-13 00:00:00 22.9 5 Sudoeste 23 Sudoeste 0 953.6 2.4 52
2019-07-12 23:00:00 23.6 0 Calma 17 Sudoeste 0 952.4 1.9 52
2019-07-12 22:00:00 24.7 7 Sudoeste 24 Sudoeste 0 952.3 0.5 47
2019-07-12 21:00:00 26.9 6 Sudoeste 19 Sudoeste 0 951.2 -0.5 41
2019-07-12 20:00:00 30 5 Este 11 Noroeste 0 950.5 -1.2 33
2019-07-12 19:00:00 29.3 9 Oeste 20 Noroeste 0 951.8 -0.6 33
2019-07-12 18:00:00 30.7 4 Oeste 17 Sudoeste 0 951.7 -0.3 32
2019-07-12 17:00:00 30.7 2 Sur 23 Noroeste 0 951.7 -0.9 33
2019-07-12 16:00:00 30.2 9 Sudoeste 24 Oeste 0 952.4 0 30
2019-07-12 15:00:00 31.8 6 Sur 18 Sudeste 0 952 -0.1 27
2019-07-12 14:00:00 32.6 5 Sur 22 Sur 0 952.6 -0.2 26
2019-07-12 13:00:00 31.4 10 Este 21 Este 0 952.4 -0.7 29
2019-07-12 12:00:00 26.6 8 Este 14 Nordeste 0 952.1 -0.7 42
2019-07-12 11:00:00 24.6 3 Este 11 Sur 0 952.8 0.5 47
2019-07-12 10:00:00 25.1 0 Calma 10 Este 0 953.1 0.8 45
2019-07-12 09:00:00 24.9 6 Este 10 Este 0 952.8 0.7 48
2019-07-12 08:00:00 20 3 Este 5 Este 0 952.3 -0.1 63
2019-07-12 07:00:00 18.9 3 Este 6 Este 0 952.3 0.3 63
2019-07-12 06:00:00 19.9 3 Sudeste 6 Sudeste 0 952.1 -0.4 60
2019-07-12 05:00:00 19.3 3 Este 10 Oeste 0 952.4 0 60
2019-07-12 04:00:00 20 6 Oeste 14 Oeste 0 952 0 56
2019-07-12 03:00:00 22.4 9 Oeste 20 Oeste 0 952.5 0.6 48
2019-07-12 02:00:00 23.6 11 Oeste 22 Noroeste 0 952.4 1.5 44
2019-07-12 01:00:00 22.8 6 Oeste 15 Sudoeste 0 952 2 44
2019-07-12 00:00:00 26.2 6 Sur 14 Sudoeste 0 951.9 2.2 38
2019-07-11 23:00:00 25.3 0 Calma 10 Sur 0 950.9 1.3 32
2019-07-11 22:00:00 27.3 3 Este 8 Sur 0 950 0.5 28
2019-07-11 21:00:00 33.8 3 Sur 12 Sudeste 0 949.7 0 19
2019-07-11 20:00:00 35.3 4 Sudeste 17 Sur 0 949.6 -0.3 18
2019-07-11 19:00:00 35.9 5 Sudeste 22 Sur 0 949.5 -0.6 17
2019-07-11 18:00:00 35.8 9 Sur 30 Sur 0 949.7 -0.4 17
2019-07-11 17:00:00 36.9 6 Sudeste 28 Sur 0 949.9 -0.5 17
2019-07-11 16:00:00 36.8 8 Sur 24 Este 0 950.1 -0.7 17
2019-07-11 15:00:00 35.7 8 Sur 19 Sur 0 950.1 -1.1 18
2019-07-11 14:00:00 34.9 3 Sudoeste 17 Sur 0 950.4 -0.8 21
2019-07-11 13:00:00 34 5 Sur 13 Este 0 950.8 -0.3 22
2019-07-11 12:00:00 31.7 3 Este 13 Este 0 951.2 0.4 24
2019-07-11 11:00:00 30.1 4 Este 12 Este 0 951.2 0.8 27
2019-07-11 10:00:00 27.7 3 Este 7 Este 0 951.1 0.8 35
2019-07-11 09:00:00 22.8 3 Este 5 Este 0 950.8 0.4 50
2019-07-11 08:00:00 17.5 3 Sudeste 6 Este 0 950.4 0.2 59
2019-07-11 07:00:00 16.2 2 Sudeste 5 Este 0 950.3 -0.2 61
2019-07-11 06:00:00 16.3 0 Calma 5 Este 0 950.4 -0.4 61
2019-07-11 05:00:00 16.5 0 Calma 3 Nordeste 0 950.2 -0.5 59
2019-07-11 04:00:00 17.6 0 Calma 7 Nordeste 0 950.5 0.1 56
2019-07-11 03:00:00 18 3 Este 6 Este 0 950.8 0.6 54
2019-07-11 02:00:00 18.9 0 Calma 5 Sudeste 0 950.7 0.7 46
2019-07-11 01:00:00 20.3 2 Sudeste 9 Este 0 950.4 0.9 38
2019-07-11 00:00:00 20.4 0 Calma 8 Este 0 950.2 1.1 33
2019-07-10 23:00:00 21.8 3 Sudeste 5 Este 0 950 1 30
2019-07-10 22:00:00 23.6 4 Sudeste 5 Este 0 949.5 0.5 26
2019-07-10 21:00:00 30.4 2 Sudeste 9 Oeste 0 949.1 -0.1 16
2019-07-10 20:00:00 33.8 2 Oeste 13 Sur 0 949 -0.4 13
2019-07-10 19:00:00 33.8 3 Sur 16 Sudoeste 0 949 -0.8 14
2019-07-10 18:00:00 34 3 Sudoeste 18 Sur 0 949.2 -1 14
2019-07-10 17:00:00 33.3 4 Nordeste 22 Este 0 949.4 -1.4 14
2019-07-10 16:00:00 32.9 5 Sudeste 21 Sur 0 949.8 -1 18
2019-07-10 15:00:00 31.7 5 Sudoeste 20 Este 0 950.2 -0.5 20
2019-07-10 14:00:00 31.1 5 Sudeste 22 Este 0 950.8 0 22
2019-07-10 13:00:00 30.4 4 Sudeste 20 Este 0 950.8 0.1 22
2019-07-10 12:00:00 30 6 Este 18 Este 0 950.7 0.1 26
2019-07-10 11:00:00 28.8 6 Este 17 Nordeste 0 950.8 0.2 27
2019-07-10 10:00:00 26.5 8 Este 14 Este 0 950.7 0 31
2019-07-10 09:00:00 22.7 3 Sudeste 8 Este 0 950.6 0 42
2019-07-10 08:00:00 16.5 4 Sudeste 7 Este 0 950.6 0.2 68
2019-07-10 07:00:00 14.8 3 Sudeste 6 Este 0 950.7 0.1 73
2019-07-10 06:00:00 15.6 4 Sudeste 7 Este 0 950.6 0 70
2019-07-10 05:00:00 16.2 5 Este 8 Este 0 950.4 -0.8 68
2019-07-10 04:00:00 15.9 4 Este 8 Este 0 950.6 -0.8 69
2019-07-10 03:00:00 16.7 3 Este 7 Este 0 950.6 -1 66
2019-07-10 02:00:00 16.9 4 Sudeste 6 Este 0 951.2 -0.5 65
2019-07-10 01:00:00 17.2 4 Este 5 Este 0 951.4 0.3 64
2019-07-10 00:00:00 18.2 0 Calma 4 Este 0 951.6 1 57
2019-07-09 23:00:00 20.2 0 Calma 10 Oeste 0 951.7 1.9 47
2019-07-09 22:00:00 22.5 3 Oeste 18 Oeste 0 951.1 1.4 41
2019-07-09 21:00:00 24.8 8 Sudoeste 19 Sudoeste 0 950.6 0.4 36
2019-07-09 20:00:00 27.3 7 Sudoeste 27 Oeste 0 949.8 -0.7 29
2019-07-09 19:00:00 28.6 4 Oeste 17 Oeste 0 949.7 -1.3 23
2019-07-09 18:00:00 27.9 5 Oeste 13 Oeste 0 950.2 -1.3 27
2019-07-09 17:00:00 27.3 6 Oeste 23 Noroeste 0 950.5 -1.8 28
2019-07-09 16:00:00 26.8 7 Oeste 21 Oeste 0 951 -1.4 29
2019-07-09 15:00:00 26.6 4 Oeste 22 Sudoeste 0 951.5 -1 32
2019-07-09 14:00:00 24.7 10 Sudoeste 22 Noroeste 0 952.3 -0.3 33
2019-07-09 13:00:00 25.6 6 Noroeste 19 Noroeste 0 952.4 -0.2 33
2019-07-09 12:00:00 25 9 Noroeste 20 Oeste 0 952.5 0.4 32
2019-07-09 11:00:00 22.8 10 Oeste 17 Oeste 0 952.6 0.8 41
2019-07-09 10:00:00 20.4 3 Oeste 9 Este 0 952.6 1 54
2019-07-09 09:00:00 18.4 4 Este 8 Este 0 952.1 0.5 65
2019-07-09 08:00:00 15 0 Calma 6 Este 0 951.8 0.1 78
2019-07-09 07:00:00 14.3 0 Calma 6 Nordeste 0 951.6 -0.1 79
2019-07-09 06:00:00 15.6 4 Oeste 12 Noroeste 0 951.6 -0.4 74
2019-07-09 05:00:00 16 6 Noroeste 12 Noroeste 0 951.7 -0.4 73
2019-07-09 04:00:00 14.8 0 Calma 10 Noroeste 0 951.7 -0.6 75
2019-07-09 03:00:00 13.2 2 Este 4 Sudeste 0 952 -0.2 77
2019-07-09 02:00:00 14 4 Oeste 5 Oeste 0 952.1 0.3 73
2019-07-09 01:00:00 15.8 0 Calma 5 Este 0 952.3 1.4 65
2019-07-09 00:00:00 17.4 0 Calma 6 Sudeste 0 952.2 1.9 57
2019-07-08 23:00:00 19.6 4 Oeste 18 Oeste 0 951.8 2.2 51
2019-07-08 22:00:00 21.6 5 Sudoeste 22 Noroeste 0 950.9 1.5 39
2019-07-08 21:00:00 24.7 11 Noroeste 20 Noroeste 0 950.3 0.8 32
2019-07-08 20:00:00 23.9 4 Sudeste 18 Sur 0 949.6 -0.2 37
2019-07-08 19:00:00 23.7 9 Sur 22 Sur 0 949.4 -0.8 37
2019-07-08 18:00:00 25.3 7 Oeste 26 Oeste 0 949.5 -1 31
2019-07-08 17:00:00 24.8 4 Sudoeste 26 Oeste 0 949.8 -1 32
2019-07-08 16:00:00 24.8 9 Sudoeste 30 Oeste 0 950.2 -0.9 32
2019-07-08 15:00:00 23.7 9 Sudoeste 27 Noroeste 0 950.5 -0.8 36
2019-07-08 14:00:00 23.1 12 Sudoeste 30 Oeste 0 950.8 -0.7 34
2019-07-08 13:00:00 23 8 Sudoeste 23 Oeste 0 951.1 -0.2 39
2019-07-08 12:00:00 21.5 6 Sur 21 Sudoeste 0 951.3 0.3 43
2019-07-08 11:00:00 20.4 6 Sur 19 Sur 0 951.5 0.6 51
2019-07-08 10:00:00 19.7 4 Sudeste 18 Sur 0 951.3 0.8 54
2019-07-08 09:00:00 17.8 0 Calma 3 Nordeste 0 951 1 61
2019-07-08 08:00:00 14.5 0 Calma 3 Sur 0 950.9 0.7 72
2019-07-08 07:00:00 13.5 2 Este 8 Sudeste 0 950.5 0.3 74
2019-07-08 06:00:00 14.6 3 Este 6 Este 0 950 -0.4 70
2019-07-08 05:00:00 15.9 3 Oeste 10 Noroeste 0 950.2 -0.2 65
2019-07-08 04:00:00 15.5 3 Noroeste 10 Norte 0 950.2 -0.1 68
2019-07-08 03:00:00 14.2 0 Calma 3 Sudeste 0 950.4 -0.2 73
2019-07-08 02:00:00 15.2 0 Calma 3 Sudoeste 0 950.4 0.1 68
2019-07-08 01:00:00 17.1 2 Este 4 Este 0 950.3 0.7 62
2019-07-08 00:00:00 20 0 Calma 12 Sudoeste 0 950.6 1.8 49
2019-07-07 23:00:00 21.5 6 Sudoeste 24 Sur 0 950.3 2.2 43
2019-07-07 22:00:00 23 8 Sur 24 Sudoeste 0 949.6 1.2 38
2019-07-07 21:00:00 26.2 8 Sudoeste 27 Sudoeste 0 948.8 0 29
2019-07-07 20:00:00 28.5 9 Sudoeste 26 Oeste 0 948.1 -1.2 24
2019-07-07 19:00:00 29.5 7 Sur 28 Oeste 0 948.4 -1.4 18
2019-07-07 18:00:00 29.3 9 Oeste 29 Sudoeste 0 948.8 -1.3 21
2019-07-07 17:00:00 30.7 13 Oeste 28 Sudoeste 0 949.3 -1.4 21
2019-07-07 16:00:00 29.4 9 Sudoeste 26 Oeste 0 949.8 -1.1 22
2019-07-07 15:00:00 29.5 8 Sudoeste 30 Noroeste 0 950.1 -1.1 24
2019-07-07 14:00:00 28.1 9 Oeste 24 Sudoeste 0 950.7 -0.6 27
2019-07-07 13:00:00 27.7 8 Sudoeste 17 Oeste 0 950.9 -0.6 27
2019-07-07 12:00:00 26.4 4 Norte 13 Noroeste 0 951.2 -0.5 31
2019-07-07 11:00:00 24.5 6 Este 17 Nordeste 0 951.3 -0.6 38
2019-07-07 10:00:00 22.1 7 Este 15 Este 0 951.5 -0.4 49
2019-07-07 09:00:00 19 5 Sudeste 11 Este 0 951.7 0.1 63
2019-07-07 08:00:00 15.4 4 Sudeste 10 Este 0 951.9 0.4 75
2019-07-07 07:00:00 14.4 3 Este 8 Este 0 951.9 -0.3 75
2019-07-07 06:00:00 15.2 0 Calma 8 Noroeste 0 951.6 -0.9 72
2019-07-07 05:00:00 16.2 0 Calma 7 Norte 0 951.5 -1.1 65
2019-07-07 04:00:00 17.6 2 Oeste 12 Noroeste 0 952.2 -0.1 61
2019-07-07 03:00:00 15.2 2 Sudeste 5 Sudeste 0 952.5 -0.1 65
2019-07-07 02:00:00 17.1 0 Calma 8 Noroeste 0 952.6 0.3 58
2019-07-07 01:00:00 17.7 4 Noroeste 8 Noroeste 0 952.3 0.3 56
2019-07-07 00:00:00 20 2 Oeste 12 Sur 0 952.6 2.2 49
2019-07-06 23:00:00 22.1 4 Sudoeste 22 Sudeste 0 952.3 2.3 43
2019-07-06 22:00:00 25.1 10 Sudoeste 21 Sudoeste 0 952 1.8 34
2019-07-06 21:00:00 27.1 9 Sur 24 Sur 0 950.4 -0.3 29
2019-07-06 20:00:00 28.7 10 Sudoeste 22 Oeste 0 950 -0.9 24
2019-07-06 19:00:00 29.2 10 Sudoeste 24 Sudoeste 0 950.2 -1.1 23
2019-07-06 18:00:00 28.5 8 Sudoeste 27 Sudoeste 0 950.7 -1.2 23
2019-07-06 17:00:00 30.1 8 Sudoeste 23 Sur 0 950.9 -1.3 19
2019-07-06 16:00:00 30.1 8 Sur 24 Oeste 0 951.3 -0.9 19
2019-07-06 15:00:00 29.4 11 Oeste 24 Oeste 0 951.9 -0.1 21
2019-07-06 14:00:00 27.9 9 Sudoeste 22 Sudoeste 0 952.2 -0.1 22
2019-07-06 13:00:00 27.8 6 Sur 20 Oeste 0 952.2 -0.1 22
2019-07-06 12:00:00 26 6 Sudoeste 17 Oeste 0 952 -0.1 25
2019-07-06 11:00:00 25.4 5 Sudoeste 11 Sudoeste 0 952.3 0.7 28
2019-07-06 10:00:00 23 5 Este 9 Este 0 952.3 0.2 39
2019-07-06 09:00:00 19.5 4 Sudeste 6 Este 0 952.1 -0.3 51
2019-07-06 08:00:00 14.8 3 Nordeste 5 Sudeste 0 951.6 -0.6 65
2019-07-06 07:00:00 12.9 3 Este 7 Nordeste 0 952.1 -0.5 69
2019-07-06 06:00:00 13.1 3 Este 6 Este 0 952.4 -0.8 67
2019-07-06 05:00:00 13.8 4 Este 7 Este 0 952.2 -1.7 61
2019-07-06 04:00:00 13.8 3 Sudeste 6 Norte 0 952.6 -1.3 57
2019-07-06 03:00:00 14.2 4 Este 6 Este 0 953.2 -0.9 54
2019-07-06 02:00:00 16 3 Sudeste 6 Noroeste 0 953.9 0.4 50
2019-07-06 01:00:00 18.1 0 Calma 7 Sudoeste 0 953.9 1.3 41
2019-07-06 00:00:00 19.8 3 Oeste 6 Sudoeste 0 954.1 2 38
2019-07-05 23:00:00 23.4 3 Sur 17 Sudoeste 0 953.5 1.4 32
2019-07-05 22:00:00 25.1 5 Sudoeste 18 Sudoeste 0 952.6 0.2 30
2019-07-05 21:00:00 27.8 4 Sudoeste 21 Sudoeste 0 952.1 -0.6 23
2019-07-05 20:00:00 28.4 7 Sudoeste 24 Sudoeste 0 952.1 -1 21
2019-07-05 19:00:00 29 10 Sudoeste 23 Sudoeste 0 952.4 -1.2 19
2019-07-05 18:00:00 28.7 12 Sudoeste 24 Sudoeste 0 952.7 -1.2 18
2019-07-05 17:00:00 28.7 9 Sudoeste 22 Sudoeste 0 953.1 -1.2 20
2019-07-05 16:00:00 29.1 7 Oeste 22 Oeste 0 953.6 -0.8 21
2019-07-05 15:00:00 27.8 9 Sudoeste 26 Sudoeste 0 953.9 -0.5 21
2019-07-05 14:00:00 27 8 Sudoeste 19 Sur 0 954.3 0.1 23
2019-07-05 13:00:00 25 5 Sudoeste 16 Sur 0 954.4 0.2 27
2019-07-05 12:00:00 23.5 6 Sur 16 Sur 0 954.4 0.3 29
2019-07-05 11:00:00 21.8 3 Sur 13 Este 0 954.2 0.3 39
2019-07-05 10:00:00 19.8 4 Sur 13 Sur 0 954.2 0.4 47
2019-07-05 09:00:00 16.4 3 Noroeste 5 Oeste 0 954.1 0.5 65
2019-07-05 08:00:00 12.8 0 Calma 3 Este 0 953.9 0.3 77
2019-07-05 07:00:00 12.2 0 Calma 3 Sudeste 0 953.8 0.1 79
2019-07-05 06:00:00 12.3 2 Este 4 Este 0 953.6 -0.6 77
2019-07-05 05:00:00 12.9 0 Calma 4 Nordeste 0 953.6 -0.8 73
2019-07-05 04:00:00 14.6 2 Nordeste 7 Este 0 953.7 -0.4 69
2019-07-05 03:00:00 15.7 2 Este 9 Sur 0 954.2 0.6 63
2019-07-05 02:00:00 17.9 4 Sur 19 Sur 0 954.4 1.6 52
2019-07-05 01:00:00 18.8 8 Sur 19 Sur 0 954.1 2 49
2019-07-05 00:00:00 19.6 3 Sudoeste 18 Sur 0 953.6 1.7 48
2019-07-04 23:00:00 20.9 6 Sur 19 Sudoeste 0 952.8 1.1 43
2019-07-04 22:00:00 22.3 5 Sudoeste 17 Sudoeste 0 952.1 0.3 41
2019-07-04 21:00:00 24 8 Sudoeste 21 Sudoeste 0 951.9 -0.2 37
2019-07-04 20:00:00 25.2 10 Sudoeste 23 Oeste 0 951.7 -0.5 35
2019-07-04 19:00:00 25.3 11 Sudoeste 28 Sudoeste 0 951.8 -0.4 34
2019-07-04 18:00:00 26.1 10 Sudoeste 30 Oeste 0 952.1 -0.6 34
2019-07-04 17:00:00 24.9 12 Sudoeste 28 Oeste 0 952.2 -0.7 35
2019-07-04 16:00:00 24.4 13 Sudoeste 32 Oeste 0 952.2 -0.8 37
2019-07-04 15:00:00 24.7 8 Sudoeste 26 Sur 0 952.7 -0.1 36
2019-07-04 14:00:00 23.7 8 Sur 30 Sudoeste 0 952.9 0.2 38
2019-07-04 13:00:00 21.8 10 Sur 26 Sur 0 953 0.4 43
2019-07-04 12:00:00 20.9 6 Sudeste 24 Sur 0 952.8 0.6 47
2019-07-04 11:00:00 18.2 7 Sur 19 Sur 0 952.7 0.8 55
2019-07-04 10:00:00 17 9 Sur 21 Sur 0 952.6 0.9 63
2019-07-04 09:00:00 16.3 5 Sur 15 Sur 0 952.2 1 69
2019-07-04 08:00:00 15.8 3 Sur 14 Sudeste 0 951.9 0.6 74
2019-07-04 07:00:00 15.5 7 Sudoeste 18 Sudoeste 0 951.7 0.6 78
2019-07-04 06:00:00 15.7 5 Sudeste 16 Sur 0 951.2 -0.2 78
2019-07-04 05:00:00 15.4 4 Sur 12 Sur 0 951.3 -0.1 78
2019-07-04 04:00:00 15.8 4 Sur 10 Sur 0 951.1 -0.2 74
2019-07-04 03:00:00 16.4 3 Sur 10 Sur 0 951.4 0.7 69
2019-07-04 02:00:00 16.8 4 Sur 10 Sudoeste 0 951.4 0.9 67
2019-07-04 01:00:00 17.4 3 Sudoeste 15 Sur 0 951.3 1.6 63
2019-07-04 00:00:00 18.3 6 Sudoeste 12 Sudoeste 0 950.7 1.4 58
2019-07-03 23:00:00 19.7 0 Calma 14 Oeste 0 950.5 1.3 51
2019-07-03 22:00:00 21.9 3 Oeste 17 Sudoeste 0 949.7 0.3 43
2019-07-03 21:00:00 23.9 7 Sudoeste 21 Sudoeste 0 949.3 -0.3 37
2019-07-03 20:00:00 25.2 9 Sudoeste 26 Oeste 0 949.2 -0.8 32
2019-07-03 19:00:00 26.6 9 Sudoeste 27 Sudoeste 0 949.4 -0.9 33
2019-07-03 18:00:00 26.6 10 Sudoeste 23 Sudoeste 0 949.6 -1.3 33
2019-07-03 17:00:00 27.5 8 Sudoeste 22 Sudoeste 0 950 -1 33
2019-07-03 16:00:00 27.7 7 Sudoeste 26 Sudoeste 0 950.3 -0.9 32
2019-07-03 15:00:00 25.7 9 Sudoeste 26 Oeste 0 950.9 -0.5 36
2019-07-03 14:00:00 24.7 8 Sudoeste 23 Oeste 0 951 -0.2 39
2019-07-03 13:00:00 23.4 10 Sudoeste 21 Oeste 0 951.2 -0.1 41
2019-07-03 12:00:00 22.8 9 Oeste 21 Sudoeste 0 951.4 0.3 44
2019-07-03 11:00:00 19.9 6 Sudoeste 16 Sudoeste 0 951.2 0.8 51
2019-07-03 10:00:00 17 5 Oeste 14 Sudoeste 0 951.3 0.7 67
2019-07-03 09:00:00 15.2 4 Oeste 9 Sur 0 951.1 0.6 81
2019-07-03 08:00:00 13 0 Calma -- -- 0 950.4 -0.2 80
2019-07-03 07:00:00 11.9 0 Calma 4 Este 0 950.6 0 81
2019-07-03 06:00:00 12 0 Calma 4 Este 0 950.5 0 80
2019-07-03 05:00:00 12.6 0 Calma 5 Noroeste 0 950.6 -0.1 80
2019-07-03 04:00:00 12.9 0 Calma 4 Este 0 950.6 -0.4 78
2019-07-03 03:00:00 13.8 0 Calma 6 Este 0 950.5 -0.4 75
2019-07-03 02:00:00 15.6 4 Este 9 Este 0 950.7 0 75
2019-07-03 01:00:00 16.7 0 Calma 5 Este 0 951 1 67
2019-07-03 00:00:00 19.6 2 Sur 12 Sudoeste 0 950.9 1.2 53
2019-07-02 23:00:00 22.3 4 Sudoeste 13 Sudoeste 0 950.7 1 44
2019-07-02 22:00:00 24.7 7 Sur 16 Sudoeste 0 950 0.1 36
2019-07-02 21:00:00 27.2 6 Sudoeste 20 Sudoeste 0 949.7 -0.6 29
2019-07-02 20:00:00 28.8 9 Sudoeste 25 Sudoeste 0 949.7 -0.8 27
2019-07-02 19:00:00 29.8 9 Sudoeste 24 Sudoeste 0 949.9 -1 27
2019-07-02 18:00:00 29.8 9 Sudoeste 31 Sur 0 950.3 -1.3 23
2019-07-02 17:00:00 30.6 10 Sudoeste 27 Sudoeste 0 950.5 -1.4 23
2019-07-02 16:00:00 30.6 10 Oeste 26 Sudoeste 0 950.9 -1.3 25
2019-07-02 15:00:00 29.1 7 Sudoeste 26 Sudoeste 0 951.6 -0.7 26
2019-07-02 14:00:00 28.5 7 Sur 22 Sudoeste 0 951.9 -0.2 27
2019-07-02 13:00:00 27.5 6 Sudoeste 21 Oeste 0 952.2 0 31
2019-07-02 12:00:00 26.3 8 Sudoeste 17 Sudoeste 0 952.3 0.2 33
2019-07-02 11:00:00 24.9 6 Sudoeste 14 Sur 0 952.1 0.1 34
2019-07-02 10:00:00 23.4 4 Oeste 9 Oeste 0 952.2 0.5 39
2019-07-02 09:00:00 20.6 0 Calma 5 Este 0 952.1 0.4 52
2019-07-02 08:00:00 16.1 3 Este 6 Este 0 952 0.2 64
2019-07-02 07:00:00 13.8 2 Este 5 Este 0 951.7 -0.5 67
2019-07-02 06:00:00 14.9 3 Este 5 Este 0 951.7 -1 63
2019-07-02 05:00:00 15.5 3 Este 6 Este 0 951.8 -1.3 57
2019-07-02 04:00:00 16.2 2 Este 5 Este 0 952.2 -0.8 52
2019-07-02 03:00:00 17.3 0 Calma 6 Este 0 952.7 -0.2 46
2019-07-02 02:00:00 19 0 Calma 6 Oeste 0 953.1 0.5 37
2019-07-02 01:00:00 21 2 Norte 10 Norte 0 953 1.1 30
2019-07-02 00:00:00 22.5 4 Noroeste 12 Noroeste 0 952.9 1.4 27
2019-07-01 23:00:00 24.3 6 Noroeste 20 Noroeste 0 952.6 1 23
2019-07-01 22:00:00 25.6 5 Oeste 16 Oeste 0 951.9 0.3 27
2019-07-01 21:00:00 29.8 5 Oeste 22 Sudoeste 0 951.5 -0.6 23
2019-07-01 20:00:00 30.7 8 Sudoeste 23 Sudoeste 0 951.6 -1.1 24
2019-07-01 19:00:00 31.8 8 Sudoeste 26 Sudoeste 0 951.6 -1.6 22
2019-07-01 18:00:00 32.8 4 Oeste 26 Noroeste 0 952.1 -1.7 19
2019-07-01 17:00:00 32.5 10 Oeste 25 Sudoeste 0 952.7 -1.3 22
2019-07-01 16:00:00 30.9 8 Sudoeste 26 Oeste 0 953.2 -1.1 26
2019-07-01 15:00:00 30.3 5 Sudoeste 22 Sudoeste 0 953.8 -0.9 27
2019-07-01 14:00:00 30.2 5 Oeste 20 Noroeste 0 954 -0.7 28
2019-07-01 13:00:00 29.5 2 Oeste 15 Sudoeste 0 954.3 -0.6 31
2019-07-01 12:00:00 27.2 5 Oeste 15 Oeste 0 954.7 -0.2 34
2019-07-01 11:00:00 24.8 3 Sur 10 Sudoeste 0 954.7 0.3 39
2019-07-01 10:00:00 21.9 4 Oeste 8 Oeste 0 954.9 0.9 53
2019-07-01 09:00:00 18.4 0 Calma 5 Noroeste 0 954.9 1 76
2019-07-01 08:00:00 16.1 0 Calma 4 Este 0 954.4 0.3 79
2019-07-01 07:00:00 15.2 0 Calma 3 Sudeste 0 954 -0.7 81
2019-07-01 06:00:00 16 0 Calma -- -- 0 953.9 -1.2 80
2019-07-01 05:00:00 16.8 0 Calma 5 Este 0 954.1 -1.1 80
2019-07-01 04:00:00 17 3 Este 5 Este 0 954.7 -0.4 80
2019-07-01 03:00:00 17 0 Calma 7 Oeste 0 955.1 0.1 79
2019-07-01 02:00:00 17.9 3 Oeste 7 Oeste 0 955.2 0.9 78
2019-07-01 01:00:00 19 0 Calma 4 Norte 0 955.1 1.3 72
2019-07-01 00:00:00 20.9 3 Oeste 12 Sudoeste 0 955 1.6 67
2019-06-30 23:00:00 22.6 5 Sudoeste 15 Sur 0 954.3 1.3 58
2019-06-30 22:00:00 24.7 6 Sudoeste 19 Sudoeste 0 953.8 0.7 51
2019-06-30 21:00:00 27.7 8 Sudoeste 21 Sudoeste 0 953.4 -0.3 37
2019-06-30 20:00:00 29.9 10 Sur 22 Oeste 0 953 -1 33
2019-06-30 19:00:00 30.6 9 Sudoeste 21 Sudoeste 0 953.1 -1.3 32
2019-06-30 18:00:00 30.8 9 Sudoeste 19 Sudoeste 0 953.7 -0.7 32
2019-06-30 17:00:00 31 7 Oeste 21 Sudoeste 0 954 -0.8 33
2019-06-30 16:00:00 29.9 9 Sudoeste 25 Sudoeste 0 954.4 -0.6 37
2019-06-30 15:00:00 29.5 8 Sudoeste 25 Oeste 0 954.4 -0.6 37
2019-06-30 14:00:00 29 8 Oeste 26 Sudoeste 0 954.8 0.1 40
2019-06-30 13:00:00 28.7 4 Sudoeste 17 Sur 0 955 0.7 39
2019-06-30 12:00:00 27.2 5 Sudoeste 17 Sudoeste 0 955 1.1 43
2019-06-30 11:00:00 25 3 Sudoeste 14 Sudoeste 0 954.7 1.2 48
2019-06-30 10:00:00 23 3 Sudoeste 12 Oeste 0 954.3 1.1 57
2019-06-30 09:00:00 20.5 3 Oeste 6 Sudoeste 0 953.9 0.9 64
2019-06-30 08:00:00 17.2 0 Calma 4 Este 0 953.5 0.5 74
2019-06-30 07:00:00 17 0 Calma 11 Oeste 0 953.2 0 72
2019-06-30 06:00:00 17.4 3 Este 6 Este 0 953 -0.1 69
2019-06-30 05:00:00 18.1 2 Este 9 Oeste 0 953 0 64
2019-06-30 04:00:00 19.7 4 Oeste 9 Sudoeste 0 953.2 0.2 58
2019-06-30 03:00:00 20.4 4 Oeste 13 Sudoeste 0 953.1 0.1 56
2019-06-30 02:00:00 21.6 6 Oeste 15 Oeste 0 953 0.8 52
2019-06-30 01:00:00 22.8 6 Oeste 15 Noroeste 0 953 2 51
2019-06-30 00:00:00 25.1 4 Oeste 14 Sudoeste 0 953 2.5 43
2019-06-29 23:00:00 26.6 5 Sudoeste 15 Sudoeste 0 952.2 1.8 39
2019-06-29 22:00:00 28.6 3 Oeste 14 Sudoeste 0 951 0.8 33
2019-06-29 21:00:00 32.3 5 Sudoeste 21 Sudoeste 0 950.5 0 22
2019-06-29 20:00:00 33.7 8 Sudoeste 24 Sudoeste 0 950.4 -0.3 18
2019-06-29 19:00:00 34.7 8 Sudoeste 20 Sudoeste 0 950.2 -0.8 17
2019-06-29 18:00:00 34.7 8 Sudoeste 23 Sur 0 950.5 -0.7 18
2019-06-29 17:00:00 35.1 8 Sudoeste 24 Sudoeste 0 950.7 -1.1 19
2019-06-29 16:00:00 34.8 6 Sur 17 Sudoeste 0 951 -1 19
2019-06-29 15:00:00 34.8 0 Calma 19 Sudeste 0 951.2 -0.9 22
2019-06-29 14:00:00 33.5 5 Sur 17 Sur 0 951.8 -0.4 24
2019-06-29 13:00:00 32.7 4 Sudeste 15 Sur 0 952 -0.3 27
2019-06-29 12:00:00 30.1 4 Sur 13 Sur 0 952.1 0.2 29
2019-06-29 11:00:00 29.9 4 Nordeste 11 Este 0 952.2 0.4 30
2019-06-29 10:00:00 27.1 7 Este 13 Este 0 952.3 0.8 38
2019-06-29 09:00:00 23.4 6 Este 10 Este 0 951.9 0.4 51
2019-06-29 08:00:00 18.5 4 Este 6 Este 0 951.8 0.1 74
2019-06-29 07:00:00 16.5 3 Este 6 Este 0 951.5 -0.4 79
2019-06-29 06:00:00 17.2 3 Este 7 Sudeste 0 951.5 -0.5 77
2019-06-29 05:00:00 18.1 4 Este 8 Sudeste 0 951.7 -0.4 74
2019-06-29 04:00:00 18 3 Este 5 Este 0 951.9 -0.4 74
2019-06-29 03:00:00 18.5 0 Calma 5 Oeste 0 952 0.1 72
2019-06-29 02:00:00 20 0 Calma 4 Este 0 952.1 0.8 65
2019-06-29 01:00:00 21.4 2 Este 8 Este 0 952.3 1.8 60
2019-06-29 00:00:00 23 2 Este 7 Sur 0 951.9 1.7 54
2019-06-28 23:00:00 24.9 2 Sudeste 10 Sudoeste 0 951.3 1.4 46
2019-06-28 22:00:00 28.9 4 Sudoeste 12 Sudoeste 0 950.5 0.4 29
2019-06-28 21:00:00 32.2 5 Oeste 17 Sudoeste 0 950.2 -0.1 22
2019-06-28 20:00:00 34.1 5 Oeste 20 Sudoeste 0 949.9 -0.7 20
2019-06-28 19:00:00 33.9 9 Sudoeste 20 Sudoeste 0 950.1 -0.9 20
2019-06-28 18:00:00 34.1 9 Oeste 19 Noroeste 0 950.3 -1 20
2019-06-28 17:00:00 33.9 7 Sudoeste 21 Oeste 0 950.6 -0.9 22
2019-06-28 16:00:00 33.5 6 Sur 22 Sur 0 951 -0.9 22
2019-06-28 15:00:00 33.4 3 Sudoeste 20 Sur 0 951.3 -0.8 23
2019-06-28 14:00:00 32.6 10 Sudoeste 20 Oeste 0 951.5 -1 25
2019-06-28 13:00:00 30.5 3 Sur 15 Sur 0 951.9 -0.8 27
2019-06-28 12:00:00 29.3 7 Este 14 Este 0 952.1 -0.5 28
2019-06-28 11:00:00 28 3 Este 14 Este 0 952.5 -0.2 30
2019-06-28 10:00:00 25 7 Nordeste 18 Este 0 952.7 0.2 33
2019-06-28 09:00:00 22 5 Este 13 Este 0 952.6 0.2 42
2019-06-28 08:00:00 16.9 2 Este 4 Sudeste 0 952.7 0.2 57
2019-06-28 07:00:00 15.7 3 Este 5 Este 0 952.5 -0.7 59
2019-06-28 06:00:00 16.3 3 Este 4 Este 0 952.4 -0.9 58
2019-06-28 05:00:00 17.4 3 Este 6 Este 0 952.5 -1.1 57
2019-06-28 04:00:00 18.2 3 Este 7 Este 0 953.2 -0.6 59
2019-06-28 03:00:00 18.3 3 Sudeste 6 Este 0 953.3 -0.7 62
2019-06-28 02:00:00 18.8 3 Sudeste 7 Sudeste 0 953.6 -0.2 59
2019-06-28 01:00:00 19.8 0 Calma 10 Oeste 0 953.8 1 53
2019-06-28 00:00:00 21 5 Noroeste 9 Oeste 0 954 1.8 47
2019-06-27 23:00:00 24.6 5 Sur 13 Sur 0 953.8 1.8 39
2019-06-27 22:00:00 25.8 3 Sudoeste 11 Oeste 0 952.8 0.6 38
2019-06-27 21:00:00 27.9 6 Oeste 14 Oeste 0 952.2 -0.1 34
2019-06-27 20:00:00 28.9 7 Oeste 19 Oeste 0 952 -0.6 33
2019-06-27 19:00:00 29.3 9 Oeste 21 Oeste 0 952.2 -1.1 33
2019-06-27 18:00:00 29.9 10 Oeste 28 Oeste 0 952.3 -1.2 33
2019-06-27 17:00:00 29.1 7 Sudoeste 25 Oeste 0 952.6 -1.2 34
2019-06-27 16:00:00 29.1 7 Oeste 25 Oeste 0 953.3 -0.8 33
2019-06-27 15:00:00 27.4 10 Sudoeste 27 Sudoeste 0 953.5 -0.5 35
2019-06-27 14:00:00 26.8 8 Oeste 25 Sudoeste 0 953.8 -0.2 38
2019-06-27 13:00:00 25.9 10 Sudoeste 24 Sudoeste 0 954.1 0.5 41
2019-06-27 12:00:00 25.4 7 Sur 21 Sur 0 954 0.6 42
2019-06-27 11:00:00 24.1 6 Sur 19 Sur 0 954 0.8 44
2019-06-27 10:00:00 22.9 4 Sudoeste 12 Sudoeste 0 953.6 0.7 48
2019-06-27 09:00:00 21.2 0 Calma 7 Sudoeste 0 953.4 0.5 53
2019-06-27 08:00:00 16.9 3 Sudeste 5 Este 0 953.2 0.4 72
2019-06-27 07:00:00 15.2 3 Este 5 Este 0 952.9 0.2 74
2019-06-27 06:00:00 15.7 3 Sudeste 5 Este 0 952.9 -0.5 73
2019-06-27 05:00:00 16.4 3 Este 6 Este 0 952.8 -1 72
2019-06-27 04:00:00 16.6 0 Calma 3 Este 0 952.7 -1.1 68
2019-06-27 03:00:00 17.5 0 Calma 5 Noroeste 0 953.4 -0.2 63
2019-06-27 02:00:00 18.1 3 Oeste 7 Oeste 0 953.8 0.6 58
2019-06-27 01:00:00 20 6 Oeste 14 Sudoeste 0 953.8 1.1 51
2019-06-27 00:00:00 20.8 7 Oeste 13 Oeste 0 953.6 1.4 46
2019-06-26 23:00:00 21.8 4 Oeste 8 Sudoeste 0 953.2 1.4 43
2019-06-26 22:00:00 23.7 3 Oeste 16 Oeste 0 952.7 1 39
2019-06-26 21:00:00 26.7 8 Oeste 24 Oeste 0 952.2 0 34
2019-06-26 20:00:00 27.8 9 Sudoeste 23 Oeste 0 951.8 -0.8 32
2019-06-26 19:00:00 28.8 9 Sudoeste 26 Oeste 0 951.7 -1.3 30
2019-06-26 18:00:00 28.4 9 Sudoeste 27 Oeste 0 952.2 -1.2 29
2019-06-26 17:00:00 28.2 9 Sur 28 Oeste 0 952.6 -1.4 31
2019-06-26 16:00:00 27.7 9 Sur 27 Sur 0 953 -1.2 32
2019-06-26 15:00:00 27.5 10 Sudoeste 25 Sudoeste 0 953.4 -0.9 34
2019-06-26 14:00:00 25.7 15 Oeste 32 Oeste 0 954 -0.2 37
2019-06-26 13:00:00 25.1 10 Sudoeste 29 Sur 0 954.2 0.2 41
2019-06-26 12:00:00 23.6 9 Sudoeste 25 Oeste 0 954.3 0.7 44
2019-06-26 11:00:00 22.1 10 Sudoeste 19 Oeste 0 954.2 1.1 52
2019-06-26 10:00:00 19.5 6 Oeste 16 Sudoeste 0 954 1.2 65
2019-06-26 09:00:00 17.4 10 Oeste 15 Oeste 0 953.6 1.1 75
2019-06-26 08:00:00 17.2 5 Sur 12 Sudeste 0 953.1 0.6 73
2019-06-26 07:00:00 15 0 Calma 8 Sur 0 952.8 0.6 79
2019-06-26 06:00:00 16.9 4 Sur 14 Sur 0 952.5 0.1 74
2019-06-26 05:00:00 17 6 Sudeste 18 Sudeste 0 952.5 -0.2 74
2019-06-26 04:00:00 17.7 5 Sur 13 Sudoeste 0 952.2 -0.4 67
2019-06-26 03:00:00 19.1 5 Sur 12 Sur 0 952.4 0.2 58
2019-06-26 02:00:00 19.8 6 Sur 14 Sur 0 952.7 0.8 51
2019-06-26 01:00:00 20.7 5 Sur 11 Sur 0 952.6 1.4 43
2019-06-26 00:00:00 22.1 4 Sur 10 Sudeste 0 952.2 1.5 38
2019-06-25 23:00:00 23.5 5 Sur 12 Sur 0 951.9 1.1 33
2019-06-25 22:00:00 25.4 4 Sudoeste 18 Sur 0 951.2 0.5 27
2019-06-25 21:00:00 28 7 Sudoeste 24 Sudoeste 0 950.7 -0.1 22
2019-06-25 20:00:00 29 9 Sudoeste 29 Oeste 0 950.8 -0.5 22
2019-06-25 19:00:00 29.3 10 Sudoeste 27 Sudoeste 0 950.7 -0.8 22
2019-06-25 18:00:00 30.2 8 Sudoeste 27 Sudoeste 0 950.8 -1.1 23
2019-06-25 17:00:00 29.8 9 Sudoeste 29 Oeste 0 951.3 -1.2 23
2019-06-25 16:00:00 29.4 8 Sudoeste 26 Oeste 0 951.5 -1.2 26
2019-06-25 15:00:00 28.4 9 Sudoeste 22 Sur 0 951.9 -1.1 27
2019-06-25 14:00:00 27.6 8 Sur 24 Sur 0 952.5 -0.2 31
2019-06-25 13:00:00 26.5 8 Sur 19 Sur 0 952.7 -0.1 34
2019-06-25 12:00:00 24.6 10 Sudoeste 19 Oeste 0 953 0.7 40
2019-06-25 11:00:00 23.3 6 Sudoeste 16 Sudoeste 0 952.7 0.3 44
2019-06-25 10:00:00 22.4 5 Sur 14 Sur 0 952.8 1 46
2019-06-25 09:00:00 21 5 Este 9 Este 0 952.3 1.1 47
2019-06-25 08:00:00 16.5 3 Este 6 Este 0 952.4 1.2 64
2019-06-25 07:00:00 14.5 5 Este 8 Este 0 951.8 0 70
2019-06-25 06:00:00 15 4 Este 6 Este 0 951.2 -0.7 74
2019-06-25 05:00:00 15.3 3 Este 5 Este 0 951.2 -0.8 80
2019-06-25 04:00:00 15.6 0 Calma -- -- 0 951.8 -0.1 79
2019-06-25 03:00:00 16.6 0 Calma 5 Este 0 951.9 0.1 77
2019-06-25 02:00:00 17.9 0 Calma 4 Nordeste 0 952 0.5 73
2019-06-25 01:00:00 19.6 0 Calma 10 Sudoeste 0 951.9 1.1 64
2019-06-25 00:00:00 21.1 4 Sudoeste 16 Sudoeste 0 951.8 1.4 57
2019-06-24 23:00:00 22.5 3 Sur 16 Sur 0 951.5 1.5 51
2019-06-24 22:00:00 23.9 5 Sur 19 Sudoeste 0 950.8 0.7 46
2019-06-24 21:00:00 26.5 7 Sur 25 Sudoeste 0 950.4 0.2 39
2019-06-24 20:00:00 28.7 7 Sudoeste 21 Oeste 0 950 -0.2 34
2019-06-24 19:00:00 28.9 8 Sudoeste 27 Oeste 0 950.1 -0.3 33
2019-06-24 18:00:00 29.1 10 Sudoeste 28 Sudoeste 0 950.2 -0.4 32
2019-06-24 17:00:00 28.7 10 Sudoeste 28 Sudoeste 0 950.2 -0.6 30
2019-06-24 16:00:00 28.1 9 Sudoeste 31 Oeste 0 950.4 -0.5 32
2019-06-24 15:00:00 27.2 8 Sudoeste 27 Oeste 0 950.6 -0.4 33
2019-06-24 14:00:00 26.1 10 Sudoeste 25 Sudoeste 0 950.8 -0.3 37
2019-06-24 13:00:00 26.1 6 Sur 22 Sudoeste 0 950.9 -0.2 38
2019-06-24 12:00:00 24.8 6 Sur 19 Sudoeste 0 951 0.3 39
2019-06-24 11:00:00 22.8 6 Sudoeste 13 Sudoeste 0 951.1 0.7 42
2019-06-24 10:00:00 21.3 4 Oeste 12 Sudoeste 0 951.1 0.9 41
2019-06-24 09:00:00 19.9 0 Calma 7 Sudoeste 0 950.7 0.5 46
2019-06-24 08:00:00 16 0 Calma 5 Este 0 950.4 0.5 64
2019-06-24 07:00:00 15.3 3 Este 5 Este 0 950.2 0.2 64
2019-06-24 06:00:00 14.9 0 Calma 6 Este 0 950.2 -0.3 60
2019-06-24 05:00:00 16.5 4 Este 6 Este 0 949.9 -0.6 57
2019-06-24 04:00:00 17.2 3 Este 4 Este 0 950 -0.7 53
2019-06-24 03:00:00 17.4 3 Sur 11 Sudoeste 0 950.5 -0.2 56
2019-06-24 02:00:00 19.6 3 Sur 10 Sur 0 950.5 0.6 48
2019-06-24 01:00:00 20.5 0 Calma 9 Oeste 0 950.7 1.5 46
2019-06-24 00:00:00 22 6 Oeste 13 Oeste 0 950.7 1.8 41
2019-06-23 23:00:00 23 9 Oeste 15 Oeste 0 949.9 1.4 39
2019-06-23 22:00:00 24.1 7 Oeste 21 Noroeste 0 949.2 0.9 37
2019-06-23 21:00:00 26.3 5 Sudoeste 18 Sudoeste 0 948.9 0.2 34
2019-06-23 20:00:00 27.8 7 Sudoeste 25 Sudoeste 0 948.5 -0.5 32
2019-06-23 19:00:00 28.7 6 Sudoeste 23 Sudoeste 0 948.3 -0.9 31
2019-06-23 18:00:00 30.1 9 Sudoeste 24 Sudoeste 0 948.7 -0.8 28
2019-06-23 17:00:00 29.4 8 Sudoeste 29 Oeste 0 949 -1 28
2019-06-23 16:00:00 30.4 4 Sur 33 Sudoeste 0 949.2 -1.2 28
2019-06-23 15:00:00 29.4 5 Sudoeste 28 Sudoeste 0 949.5 -1.1 26
2019-06-23 14:00:00 28.7 6 Sudoeste 23 Sudoeste 0 950 -0.7 27
2019-06-23 13:00:00 27.2 8 Sudoeste 18 Sudoeste 0 950.4 -0.4 28
2019-06-23 12:00:00 26.2 5 Oeste 16 Oeste 0 950.6 -0.1 29
2019-06-23 11:00:00 25.1 7 Noroeste 14 Oeste 0 950.7 0.6 31
2019-06-23 10:00:00 22.7 8 Oeste 13 Oeste 0 950.8 0.5 35
2019-06-23 09:00:00 19.8 4 Noroeste 6 Noroeste 0 950.7 0.3 47
2019-06-23 08:00:00 15.9 3 Sudeste 8 Este 0 950.1 -0.1 53
2019-06-23 07:00:00 13.3 5 Este 8 Este 0 950.3 -0.1 60
2019-06-23 06:00:00 13.9 3 Sudeste 7 Este 0 950.4 -0.3 63
2019-06-23 05:00:00 14.1 4 Sudeste 6 Este 0 950.2 -0.4 62
2019-06-23 04:00:00 14.9 4 Sudeste 7 Este 0 950.4 -0.2 58
2019-06-23 03:00:00 15.8 4 Este 8 Noroeste 0 950.7 0.3 54
2019-06-23 02:00:00 16.7 3 Oeste 5 Oeste 0 950.6 0.2 48
2019-06-23 01:00:00 17.9 2 Oeste 7 Oeste 0 950.6 0.8 46
2019-06-23 00:00:00 18 0 Calma 4 Sudoeste 0 950.4 1 46
2019-06-22 23:00:00 20.6 2 Oeste 11 Sudoeste 0 950.4 1.1 36
2019-06-22 22:00:00 24.2 3 Oeste 18 Oeste 0 949.8 0.6 28
2019-06-22 21:00:00 28 8 Sudoeste 20 Oeste 0 949.4 -0.3 23
2019-06-22 20:00:00 29.3 8 Sudoeste 18 Oeste 0 949.3 -0.8 19
2019-06-22 19:00:00 30.1 5 Sudoeste 20 Sudoeste 0 949.2 -1.4 17
2019-06-22 18:00:00 30.6 8 Sudoeste 22 Oeste 0 949.7 -1.4 18
2019-06-22 17:00:00 30 6 Sudoeste 25 Sudoeste 0 950.1 -1.5 18
2019-06-22 16:00:00 30.1 6 Sudoeste 24 Sudoeste 0 950.6 -1.4 21
2019-06-22 15:00:00 29.3 8 Oeste 26 Oeste 0 951.1 -1 22
2019-06-22 14:00:00 28.7 6 Sur 30 Oeste 0 951.6 -0.6 24
2019-06-22 13:00:00 27.8 6 Sur 18 Sur 0 952 -0.1 27
2019-06-22 12:00:00 26.6 6 Sur 16 Sur 0 952.1 0.4 31
2019-06-22 11:00:00 24.7 8 Sur 15 Sudeste 0 952.2 0.3 34
2019-06-22 10:00:00 24.3 2 Sudeste 8 Sudeste 0 952.1 0.7 37
2019-06-22 09:00:00 20.9 5 Este 10 Este 0 951.7 0.6 45
2019-06-22 08:00:00 15.6 4 Este 8 Este 0 951.9 0.6 59
2019-06-22 07:00:00 12.9 5 Este 8 Este 0 951.4 -0.2 64
2019-06-22 06:00:00 12.7 4 Este 8 Este 0 951.1 -0.6 62
2019-06-22 05:00:00 13 4 Este 7 Este 0 951.3 -0.5 57
2019-06-22 04:00:00 13.2 4 Sudeste 7 Sudeste 0 951.6 -0.2 54
2019-06-22 03:00:00 14.1 3 Sudeste 7 Este 0 951.7 -0.1 51
2019-06-22 02:00:00 15.1 3 Este 6 Este 0 951.8 0.3 45
2019-06-22 01:00:00 17 3 Sudeste 12 Nordeste 0 951.8 0.9 37
2019-06-22 00:00:00 19.7 4 Nordeste 10 Norte 0 951.8 0.9 31
2019-06-21 23:00:00 21.4 3 Noroeste 9 Norte 0 951.5 0.6 28
2019-06-21 22:00:00 23.2 0 Calma 12 Noroeste 0 950.9 0.4 26
2019-06-21 21:00:00 25.7 6 Norte 18 Norte 0 950.9 0.3 22
2019-06-21 20:00:00 28.4 9 Noroeste 21 Noroeste 0 950.9 0 19
2019-06-21 19:00:00 28.7 7 Noroeste 23 Noroeste 0 950.5 -0.8 19
2019-06-21 18:00:00 29.1 11 Noroeste 24 Oeste 0 950.6 -1.2 19
2019-06-21 17:00:00 29 12 Oeste 23 Oeste 0 950.9 -1.5 21
2019-06-21 16:00:00 28.1 10 Oeste 21 Oeste 0 951.3 -1.3 21
2019-06-21 15:00:00 26.7 7 Oeste 21 Oeste 0 951.8 -0.9 22
2019-06-21 14:00:00 25.3 9 Oeste 18 Oeste 0 952.4 -0.4 25
2019-06-21 13:00:00 24.6 5 Noroeste 19 Oeste 0 952.6 -0.4 28
2019-06-21 12:00:00 22.4 7 Noroeste 14 Oeste 0 952.7 -0.3 31
2019-06-21 11:00:00 20.8 3 Nordeste 10 Nordeste 0 952.8 0.3 40
2019-06-21 10:00:00 17.7 4 Norte 13 Noroeste 0 953 1 51
2019-06-21 09:00:00 15 4 Norte 11 Norte 0 953 1.4 62
2019-06-21 08:00:00 13 0 Calma 10 Norte 0 952.5 0.9 70
2019-06-21 07:00:00 11.7 4 Nordeste 9 Nordeste 0 952 0.2 73
2019-06-21 06:00:00 12.1 4 Este 9 Nordeste 0 951.6 -0.2 68
2019-06-21 05:00:00 14.1 0 Calma 14 Noroeste 0 951.6 -0.1 61
2019-06-21 04:00:00 15.1 5 Noroeste 18 Norte 0 951.8 0.1 56
2019-06-21 03:00:00 16.2 7 Noroeste 23 Noroeste 0 951.8 0.3 52
2019-06-21 02:00:00 17.1 8 Noroeste 21 Noroeste 0 951.7 0.7 48
2019-06-21 01:00:00 18.1 11 Noroeste 22 Noroeste 0 951.7 1.4 47
2019-06-21 00:00:00 17.5 4 Noroeste 14 Noroeste 0 951.5 1.5 49
2019-06-20 23:00:00 17.7 3 Noroeste 11 Sur 0 951 1.3 49
2019-06-20 22:00:00 20.7 6 Sur 25 Sudoeste 0 950.3 0.9 39
2019-06-20 21:00:00 22.6 5 Sudoeste 21 Sur 0 950 0.2 34
2019-06-20 20:00:00 24.3 9 Sur 24 Oeste 0 949.7 -0.2 34
2019-06-20 19:00:00 25.7 6 Sudoeste 30 Oeste 0 949.4 -1.1 28
2019-06-20 18:00:00 27.8 6 Noroeste 28 Oeste 0 949.8 -1.4 27
2019-06-20 17:00:00 26 2 Sur 26 Sudoeste 0 949.9 -1.6 29
2019-06-20 16:00:00 26.1 8 Sudoeste 23 Oeste 0 950.5 -1.1 29
2019-06-20 15:00:00 24.4 5 Sudoeste 22 Sudoeste 0 951.2 -0.4 32
2019-06-20 14:00:00 24.8 6 Sudoeste 22 Oeste 0 951.5 -0.1 33
2019-06-20 13:00:00 22.3 10 Oeste 25 Oeste 0 951.6 -0.1 41
2019-06-20 12:00:00 22.8 12 Oeste 22 Oeste 0 951.6 -0.1 41
2019-06-20 11:00:00 20.9 3 Noroeste 11 Noroeste 0 951.6 0.1 46
2019-06-20 10:00:00 20.2 0 Calma 8 Noroeste 0 951.7 0 51
2019-06-20 09:00:00 18.2 4 Oeste 8 Norte 0 951.7 0.5 59
2019-06-20 08:00:00 15.8 0 Calma 5 Noroeste 0 951.5 0.3 69
2019-06-20 07:00:00 14.4 0 Calma 5 Oeste 0 951.7 0.3 74
2019-06-20 06:00:00 14.4 0 Calma 8 Noroeste 0 951.2 -0.6 70
2019-06-20 05:00:00 15 3 Noroeste 14 Norte 0 951.2 -0.8 68
2019-06-20 04:00:00 15.2 4 Noroeste 14 Norte 0 951.4 -0.9 70
2019-06-20 03:00:00 13.9 0 Calma 5 Noroeste 0 951.8 -0.4 77
2019-06-20 02:00:00 14.3 0 Calma 4 Este 0 952 0.2 73
2019-06-20 01:00:00 15.4 3 Este 5 Este 0 952.3 1.2 69
2019-06-20 00:00:00 17.2 0 Calma 3 Sur 0 952.2 1.5 61
2019-06-19 23:00:00 19.5 0 Calma 13 Sudoeste 0 951.8 1.3 51
2019-06-19 22:00:00 21.9 5 Sudoeste 15 Sudoeste 0 951.1 0.6 42
2019-06-19 21:00:00 25 8 Sudoeste 19 Sudoeste 0 950.7 -0.2 32
2019-06-19 20:00:00 27 7 Oeste 21 Oeste 0 950.5 -1.1 22
2019-06-19 19:00:00 28.2 6 Oeste 24 Oeste 0 950.5 -1.6 22
2019-06-19 18:00:00 28.5 4 Oeste 24 Oeste 0 950.9 -1.8 23
2019-06-19 17:00:00 27.6 4 Oeste 24 Sudoeste 0 951.6 -1.7 24
2019-06-19 16:00:00 27.8 6 Noroeste 26 Oeste 0 952.1 -1.6 26
2019-06-19 15:00:00 25.9 8 Sudoeste 22 Oeste 0 952.7 -0.8 28
2019-06-19 14:00:00 25.6 6 Noroeste 20 Noroeste 0 953.3 -0.4 31
2019-06-19 13:00:00 23.8 6 Sur 19 Oeste 0 953.7 0 34
2019-06-19 12:00:00 22 6 Oeste 18 Oeste 0 953.5 0.1 39
2019-06-19 11:00:00 20.3 2 Oeste 9 Oeste 0 953.7 0.6 46
2019-06-19 10:00:00 18 2 Noroeste 9 Noroeste 0 953.7 0.9 60
2019-06-19 09:00:00 16.9 2 Noroeste 7 Este 0 953.4 0.8 68
2019-06-19 08:00:00 15.8 0 Calma 3 Oeste 0 953.1 0.5 76
2019-06-19 07:00:00 15.3 0 Calma 4 Noroeste 0 952.8 0.2 79
2019-06-19 06:00:00 15 0 Calma 5 Sudoeste 0 952.6 -0.2 81
2019-06-19 05:00:00 14.3 0 Calma 4 Noroeste 0 952.6 -0.4 83
2019-06-19 04:00:00 13.4 0 Calma 5 Este 0 952.6 -0.4 83
2019-06-19 03:00:00 14 4 Este 6 Este 0 952.8 -0.3 81
2019-06-19 02:00:00 15.1 3 Este 9 Oeste 0 953 0 80
2019-06-19 01:00:00 16.2 0 Calma 12 Oeste 0 953 0.7 79
2019-06-19 00:00:00 17.1 4 Sur 11 Sudoeste 0 953.1 0.8 74
2019-06-18 23:00:00 18 0 Calma 12 Oeste 0 953 0.9 67
2019-06-18 22:00:00 19.5 9 Oeste 20 Oeste 0 952.3 0.5 58
2019-06-18 21:00:00 21.9 8 Oeste 23 Oeste 0 952.3 0.4 49
2019-06-18 20:00:00 23.1 12 Oeste 30 Oeste 0 952.1 0.2 47
2019-06-18 19:00:00 23.7 11 Oeste 32 Sudoeste 0 951.8 -0.5 45
2019-06-18 18:00:00 24.9 12 Sudoeste 30 Oeste 0 951.9 -0.7 44
2019-06-18 17:00:00 24.7 12 Sudoeste 29 Sur 0 951.9 -1.2 43
2019-06-18 16:00:00 24.7 11 Sudoeste 30 Sudoeste 0 952.3 -0.9 42
2019-06-18 15:00:00 23.6 9 Sudoeste 25 Sudoeste 0 952.6 -0.5 42
2019-06-18 14:00:00 22.5 10 Sudoeste 24 Sudoeste 0 953.1 0.5 41
2019-06-18 13:00:00 21.8 9 Sudoeste 23 Sudoeste 0 953.2 0.3 41
2019-06-18 12:00:00 20.7 9 Sudoeste 21 Sudoeste 0 953.1 0.5 42
2019-06-18 11:00:00 18.7 10 Sudoeste 19 Sudoeste 0 952.6 0.7 47
2019-06-18 10:00:00 16.7 8 Oeste 18 Oeste 0 952.9 1.3 55
2019-06-18 09:00:00 15.6 4 Sudoeste 12 Sur 0 952.6 1.2 48
2019-06-18 08:00:00 12.1 2 Sur 9 Sur 0 951.9 0.6 42
2019-06-18 07:00:00 11.2 0 Calma 10 Sur 0 951.6 0 37
2019-06-18 06:00:00 12.4 2 Sudeste 7 Sur 0 951.4 -0.4 35
2019-06-18 05:00:00 15 2 Sur 11 Sur 0 951.3 -0.7 29
2019-06-18 04:00:00 16.7 2 Sur 6 Sudoeste 0 951.6 -0.4 31
2019-06-18 03:00:00 17.2 0 Calma 10 Sudoeste 0 951.8 -0.2 31
2019-06-18 02:00:00 19.6 4 Sur 17 Sur 0 952 0.2 25
2019-06-18 01:00:00 19.8 7 Sur 15 Sur 0 952 0.9 31
2019-06-18 00:00:00 20.8 4 Sudoeste 13 Sudoeste 0 952 0.8 29
2019-06-17 23:00:00 19 0 Calma 9 Sudoeste 0 951.8 0.5 32
2019-06-17 22:00:00 21.9 4 Sur 18 Oeste 0 951.1 -0.1 25
2019-06-17 21:00:00 24.1 5 Oeste 23 Oeste 0 951.2 -0.5 23
2019-06-17 20:00:00 26.4 10 Sudoeste 27 Sudoeste 0 951.3 -0.3 24
2019-06-17 19:00:00 27.1 11 Sudoeste 29 Oeste 0 951.2 -1.4 24
2019-06-17 18:00:00 27.3 10 Sudoeste 30 Sudoeste 0 951.7 -1.3 19
2019-06-17 17:00:00 27.9 9 Sudoeste 30 Sudoeste 0 951.6 -1.9 21
2019-06-17 16:00:00 26.8 10 Sudoeste 28 Sur 0 952.6 -1.4 24
2019-06-17 15:00:00 27.2 8 Sur 23 Sur 0 953 -0.9 24
2019-06-17 14:00:00 26 8 Sur 25 Sur 0 953.5 -0.7 27
2019-06-17 13:00:00 25.5 6 Sudoeste 22 Sur 0 954 -0.4 27
2019-06-17 12:00:00 24.1 5 Oeste 19 Oeste 0 953.9 -0.2 33
2019-06-17 11:00:00 22.5 6 Sudoeste 16 Sudoeste 0 954.2 0.1 37
2019-06-17 10:00:00 20.2 5 Sudoeste 12 Sudoeste 0 954.4 0.3 41
2019-06-17 09:00:00 18.4 0 Calma 6 Sudeste 0 954.1 0.1 48
2019-06-17 08:00:00 12.1 3 Sudeste 6 Sudeste 0 954.1 0 66
2019-06-17 07:00:00 9.3 4 Sudeste 6 Sudeste 0 954.1 -0.1 70
2019-06-17 06:00:00 9.8 3 Sudeste 6 Sudeste 0 954 -0.4 69
2019-06-17 05:00:00 9.5 4 Este 5 Este 0 954.1 -0.6 69
2019-06-17 04:00:00 10 4 Este 6 Este 0 954.2 -0.9 66
2019-06-17 03:00:00 10.7 2 Este 5 Sudeste 0 954.4 -0.6 62
2019-06-17 02:00:00 12.2 0 Calma 3 Sudeste 0 954.7 0.1 56
2019-06-17 01:00:00 13.6 0 Calma 5 Noroeste 0 955.1 1 51
2019-06-17 00:00:00 15.7 2 Oeste 9 Oeste 0 955 1.3 45
2019-06-16 23:00:00 17.1 3 Oeste 7 Sudoeste 0 954.6 1.2 37
2019-06-16 22:00:00 20.6 2 Sudoeste 18 Sur 0 954.1 0.6 31
2019-06-16 21:00:00 24.2 8 Sudoeste 24 Oeste 0 953.7 0.3 28
2019-06-16 20:00:00 25.5 9 Sudoeste 24 Sudoeste 0 953.4 0 28
2019-06-16 19:00:00 25.3 9 Sudoeste 25 Sur 0 953.5 -0.2 32
2019-06-16 18:00:00 26.8 9 Sudoeste 28 Oeste 0 953.4 -0.7 27
2019-06-16 17:00:00 26.4 9 Sudoeste 24 Oeste 0 953.4 -0.8 26
2019-06-16 16:00:00 26.9 9 Oeste 24 Sur 0 953.7 -0.4 27
2019-06-16 15:00:00 26.7 7 Sur 27 Sur 0 954.1 0 28
2019-06-16 14:00:00 25.2 7 Sur 21 Sur 0 954.2 0 29
2019-06-16 13:00:00 25 3 Sudeste 14 Sur 0 954.1 0 29
2019-06-16 12:00:00 24.9 3 Sur 13 Sur 0 954.1 0.4 29
2019-06-16 11:00:00 23.6 6 Sur 14 Sudoeste 0 954.2 1 31
2019-06-16 10:00:00 22 4 Este 7 Este 0 954.1 1.1 35
2019-06-16 09:00:00 16.2 0 Calma 5 Este 0 953.7 0.9 56
2019-06-16 08:00:00 12.3 4 Este 6 Este 0 953.2 0.3 59
2019-06-16 07:00:00 10.5 2 Este 5 Este 0 953 -0.2 61
2019-06-16 06:00:00 10.2 2 Sudeste 7 Este 0 952.8 -0.5 58
2019-06-16 05:00:00 10.6 4 Este 7 Este 0 952.9 -0.8 56
2019-06-16 04:00:00 12.2 3 Sudeste 6 Este 0 953.2 -1.3 51
2019-06-16 03:00:00 14.3 2 Sudeste 8 Sudeste 0 953.3 -1.4 46
2019-06-16 02:00:00 15.2 3 Este 7 Este 0 953.7 -0.6 45
2019-06-16 01:00:00 14.9 3 Sudeste 7 Este 0 954.5 0.7 48
2019-06-16 00:00:00 15.3 3 Sudeste 6 Este 0 954.7 1.2 52